sensor_id;sensor_type;location;lat;lon;timestamp;pressure;altitude;pressure_sealevel;temperature;humidity
64230;BME280;50547;49.498;0.092;2023-02-12T00:01:39;1035.27;;;11.49;78.84
64230;BME280;50547;49.498;0.092;2023-02-12T00:04:08;1035.27;;;11.35;79.42
64230;BME280;50547;49.498;0.092;2023-02-12T00:06:37;1035.25;;;11.19;80.14
64230;BME280;50547;49.498;0.092;2023-02-12T00:09:07;1035.25;;;11.08;80.33
64230;BME280;50547;49.498;0.092;2023-02-12T00:11:36;1035.23;;;10.86;81.13
64230;BME280;50547;49.498;0.092;2023-02-12T00:14:05;1035.21;;;10.86;80.87
64230;BME280;50547;49.498;0.092;2023-02-12T00:16:34;1035.21;;;10.86;80.75
64230;BME280;50547;49.498;0.092;2023-02-12T00:19:04;1035.21;;;10.99;80.20
64230;BME280;50547;49.498;0.092;2023-02-12T00:21:33;1035.19;;;11.06;79.81
64230;BME280;50547;49.498;0.092;2023-02-12T00:24:02;1035.21;;;11.12;79.69
64230;BME280;50547;49.498;0.092;2023-02-12T00:26:40;1035.09;;;11.18;79.69
64230;BME280;50547;49.498;0.092;2023-02-12T00:29:09;1035.11;;;11.17;79.77
64230;BME280;50547;49.498;0.092;2023-02-12T00:31:39;1035.13;;;11.18;79.81
64230;BME280;50547;49.498;0.092;2023-02-12T00:34:09;1035.09;;;11.09;80.14
64230;BME280;50547;49.498;0.092;2023-02-12T00:36:39;1035.01;;;10.65;82.06
64230;BME280;50547;49.498;0.092;2023-02-12T00:39:09;1035.05;;;10.51;82.67
64230;BME280;50547;49.498;0.092;2023-02-12T00:41:38;1035.05;;;10.36;83.02
64230;BME280;50547;49.498;0.092;2023-02-12T00:44:07;1035.01;;;10.43;82.41
64230;BME280;50547;49.498;0.092;2023-02-12T00:46:36;1035.03;;;10.34;82.70
64230;BME280;50547;49.498;0.092;2023-02-12T00:49:06;1035.11;;;10.44;82.06
64230;BME280;50547;49.498;0.092;2023-02-12T00:51:35;1035.09;;;10.41;82.25
64230;BME280;50547;49.498;0.092;2023-02-12T00:54:04;1035.07;;;10.35;82.52
64230;BME280;50547;49.498;0.092;2023-02-12T00:56:33;1035.09;;;10.40;82.21
64230;BME280;50547;49.498;0.092;2023-02-12T00:59:03;1035.05;;;10.43;82.07
64230;BME280;50547;49.498;0.092;2023-02-12T01:01:32;1035.05;;;10.27;82.97
64230;BME280;50547;49.498;0.092;2023-02-12T01:04:01;1035.01;;;10.30;82.68
64230;BME280;50547;49.498;0.092;2023-02-12T01:06:30;1035.01;;;10.37;82.45
64230;BME280;50547;49.498;0.092;2023-02-12T01:09:00;1035.03;;;10.42;82.19
64230;BME280;50547;49.498;0.092;2023-02-12T01:11:29;1035.03;;;10.59;81.64
64230;BME280;50547;49.498;0.092;2023-02-12T01:13:58;1035.03;;;10.63;81.55
64230;BME280;50547;49.498;0.092;2023-02-12T01:16:28;1034.98;;;10.40;82.51
64230;BME280;50547;49.498;0.092;2023-02-12T01:18:57;1034.96;;;10.29;82.93
64230;BME280;50547;49.498;0.092;2023-02-12T01:21:28;1034.96;;;10.28;82.67
64230;BME280;50547;49.498;0.092;2023-02-12T01:23:58;1034.92;;;10.28;82.62
64230;BME280;50547;49.498;0.092;2023-02-12T01:26:30;1034.94;;;10.25;82.53
64230;BME280;50547;49.498;0.092;2023-02-12T01:29:01;1034.92;;;10.23;82.67
64230;BME280;50547;49.498;0.092;2023-02-12T01:31:33;1034.94;;;10.32;82.33
64230;BME280;50547;49.498;0.092;2023-02-12T01:34:05;1034.96;;;10.41;81.92
64230;BME280;50547;49.498;0.092;2023-02-12T01:36:34;1034.90;;;10.34;82.08
64230;BME280;50547;49.498;0.092;2023-02-12T01:39:04;1034.92;;;10.36;81.97
64230;BME280;50547;49.498;0.092;2023-02-12T01:41:37;1034.92;;;10.24;82.48
64230;BME280;50547;49.498;0.092;2023-02-12T01:44:11;1034.90;;;10.23;82.29
64230;BME280;50547;49.498;0.092;2023-02-12T01:46:41;1034.86;;;10.20;82.33
64230;BME280;50547;49.498;0.092;2023-02-12T01:49:14;1034.84;;;10.22;82.09
64230;BME280;50547;49.498;0.092;2023-02-12T01:51:45;1034.84;;;10.33;81.48
64230;BME280;50547;49.498;0.092;2023-02-12T01:54:19;1034.82;;;10.25;81.79
64230;BME280;50547;49.498;0.092;2023-02-12T01:56:49;1034.78;;;10.38;81.28
64230;BME280;50547;49.498;0.092;2023-02-12T01:59:19;1034.72;;;10.37;81.23
64230;BME280;50547;49.498;0.092;2023-02-12T02:01:49;1034.80;;;10.41;81.02
64230;BME280;50547;49.498;0.092;2023-02-12T02:04:21;1034.76;;;10.38;81.24
64230;BME280;50547;49.498;0.092;2023-02-12T02:06:56;1034.78;;;10.19;81.96
64230;BME280;50547;49.498;0.092;2023-02-12T02:09:27;1034.76;;;10.15;82.06
64230;BME280;50547;49.498;0.092;2023-02-12T02:11:57;1034.74;;;10.15;81.94
64230;BME280;50547;49.498;0.092;2023-02-12T02:14:26;1034.74;;;10.22;81.67
64230;BME280;50547;49.498;0.092;2023-02-12T02:17:03;1034.76;;;10.19;81.69
64230;BME280;50547;49.498;0.092;2023-02-12T02:19:49;1034.72;;;10.29;81.09
64230;BME280;50547;49.498;0.092;2023-02-12T02:22:29;1034.78;;;10.47;80.45
64230;BME280;50547;49.498;0.092;2023-02-12T02:26:18;1034.74;;;10.57;80.35
64230;BME280;50547;49.498;0.092;2023-02-12T02:28:58;1034.74;;;10.65;80.28
64230;BME280;50547;49.498;0.092;2023-02-12T02:31:35;1034.72;;;10.79;79.80
64230;BME280;50547;49.498;0.092;2023-02-12T02:34:16;1034.70;;;10.78;79.73
64230;BME280;50547;49.498;0.092;2023-02-12T02:36:51;1034.70;;;10.67;80.01
64230;BME280;50547;49.498;0.092;2023-02-12T02:39:27;1034.64;;;10.51;80.51
64230;BME280;50547;49.498;0.092;2023-02-12T02:42:00;1034.62;;;10.49;80.37
64230;BME280;50547;49.498;0.092;2023-02-12T02:44:36;1034.58;;;10.30;80.99
64230;BME280;50547;49.498;0.092;2023-02-12T02:47:10;1034.64;;;10.36;80.57
64230;BME280;50547;49.498;0.092;2023-02-12T02:49:44;1034.60;;;10.38;80.29
64230;BME280;50547;49.498;0.092;2023-02-12T02:52:19;1034.64;;;10.45;79.92
64230;BME280;50547;49.498;0.092;2023-02-12T02:54:53;1034.60;;;10.39;80.04
64230;BME280;50547;49.498;0.092;2023-02-12T02:57:27;1034.66;;;10.34;80.20
64230;BME280;50547;49.498;0.092;2023-02-12T03:00:03;1034.64;;;10.38;80.09
64230;BME280;50547;49.498;0.092;2023-02-12T03:02:37;1034.62;;;10.29;80.49
64230;BME280;50547;49.498;0.092;2023-02-12T03:05:09;1034.64;;;10.34;80.29
64230;BME280;50547;49.498;0.092;2023-02-12T03:07:46;1034.64;;;10.30;80.32
64230;BME280;50547;49.498;0.092;2023-02-12T03:10:19;1034.68;;;10.26;80.58
64230;BME280;50547;49.498;0.092;2023-02-12T03:12:54;1034.62;;;10.20;80.80
64230;BME280;50547;49.498;0.092;2023-02-12T03:15:30;1034.58;;;10.11;81.12
64230;BME280;50547;49.498;0.092;2023-02-12T03:18:04;1034.55;;;10.18;80.69
64230;BME280;50547;49.498;0.092;2023-02-12T03:20:40;1034.55;;;10.25;80.48
64230;BME280;50547;49.498;0.092;2023-02-12T03:23:14;1034.49;;;10.32;80.31
64230;BME280;50547;49.498;0.092;2023-02-12T03:25:49;1034.45;;;10.10;81.12
64230;BME280;50547;49.498;0.092;2023-02-12T03:28:23;1034.45;;;10.05;81.18
64230;BME280;50547;49.498;0.092;2023-02-12T03:31:01;1034.37;;;10.17;80.55
64230;BME280;50547;49.498;0.092;2023-02-12T03:33:42;1034.35;;;10.14;80.66
64230;BME280;50547;49.498;0.092;2023-02-12T03:36:25;1034.37;;;10.07;80.96
64230;BME280;50547;49.498;0.092;2023-02-12T03:39:00;1034.33;;;10.01;81.13
64230;BME280;50547;49.498;0.092;2023-02-12T03:41:33;1034.27;;;10.03;80.95
64230;BME280;50547;49.498;0.092;2023-02-12T03:44:13;1034.33;;;10.10;80.61
64230;BME280;50547;49.498;0.092;2023-02-12T03:46:57;1034.37;;;10.19;80.34
64230;BME280;50547;49.498;0.092;2023-02-12T03:49:33;1034.35;;;10.22;80.19
64230;BME280;50547;49.498;0.092;2023-02-12T03:52:04;1034.33;;;10.17;80.40
64230;BME280;50547;49.498;0.092;2023-02-12T03:54:33;1034.37;;;10.17;80.51
64230;BME280;50547;49.498;0.092;2023-02-12T03:57:05;1034.37;;;10.06;80.80
64230;BME280;50547;49.498;0.092;2023-02-12T03:59:37;1034.39;;;9.93;81.33
64230;BME280;50547;49.498;0.092;2023-02-12T04:02:07;1034.43;;;9.92;81.28
64230;BME280;50547;49.498;0.092;2023-02-12T04:04:37;1034.39;;;9.94;81.03
64230;BME280;50547;49.498;0.092;2023-02-12T04:07:06;1034.41;;;9.91;81.09
64230;BME280;50547;49.498;0.092;2023-02-12T04:09:36;1034.41;;;9.86;81.30
64230;BME280;50547;49.498;0.092;2023-02-12T04:12:20;1034.43;;;9.90;81.06
64230;BME280;50547;49.498;0.092;2023-02-12T04:15:04;1034.43;;;10.03;80.55
64230;BME280;50547;49.498;0.092;2023-02-12T04:17:42;1034.41;;;10.07;80.50
64230;BME280;50547;49.498;0.092;2023-02-12T04:20:23;1034.43;;;10.05;80.55
64230;BME280;50547;49.498;0.092;2023-02-12T04:23:04;1034.43;;;9.90;81.14
64230;BME280;50547;49.498;0.092;2023-02-12T04:25:45;1034.45;;;9.90;81.12
64230;BME280;50547;49.498;0.092;2023-02-12T04:28:26;1034.51;;;9.87;81.18
64230;BME280;50547;49.498;0.092;2023-02-12T04:30:59;1034.45;;;9.89;80.93
64230;BME280;50547;49.498;0.092;2023-02-12T04:33:34;1034.45;;;9.77;81.61
64230;BME280;50547;49.498;0.092;2023-02-12T04:36:11;1034.41;;;9.75;81.83
64230;BME280;50547;49.498;0.092;2023-02-12T04:38:46;1034.39;;;9.73;81.83
64230;BME280;50547;49.498;0.092;2023-02-12T04:41:19;1034.39;;;9.67;82.12
64230;BME280;50547;49.498;0.092;2023-02-12T04:43:48;1034.41;;;9.73;81.83
64230;BME280;50547;49.498;0.092;2023-02-12T04:46:17;1034.39;;;9.68;81.96
64230;BME280;50547;49.498;0.092;2023-02-12T04:48:51;1034.41;;;9.78;81.58
64230;BME280;50547;49.498;0.092;2023-02-12T04:51:21;1034.45;;;9.82;81.37
64230;BME280;50547;49.498;0.092;2023-02-12T04:53:50;1034.47;;;9.83;81.60
64230;BME280;50547;49.498;0.092;2023-02-12T04:56:19;1034.41;;;9.88;81.40
64230;BME280;50547;49.498;0.092;2023-02-12T04:58:48;1034.35;;;9.79;81.84
64230;BME280;50547;49.498;0.092;2023-02-12T05:01:18;1034.37;;;9.61;82.78
64230;BME280;50547;49.498;0.092;2023-02-12T05:03:47;1034.37;;;9.59;82.70
64230;BME280;50547;49.498;0.092;2023-02-12T05:06:16;1034.37;;;9.55;82.93
64230;BME280;50547;49.498;0.092;2023-02-12T05:08:45;1034.41;;;9.57;82.89
64230;BME280;50547;49.498;0.092;2023-02-12T05:11:14;1034.39;;;9.62;82.51
64230;BME280;50547;49.498;0.092;2023-02-12T05:13:47;1034.39;;;9.47;83.40
64230;BME280;50547;49.498;0.092;2023-02-12T05:16:17;1034.31;;;9.45;83.42
64230;BME280;50547;49.498;0.092;2023-02-12T05:18:46;1034.29;;;9.49;83.18
64230;BME280;50547;49.498;0.092;2023-02-12T05:21:16;1034.33;;;9.56;82.89
64230;BME280;50547;49.498;0.092;2023-02-12T05:23:45;1034.33;;;9.77;81.99
64230;BME280;50547;49.498;0.092;2023-02-12T05:26:16;1034.27;;;9.75;82.27
64230;BME280;50547;49.498;0.092;2023-02-12T05:28:46;1034.37;;;9.87;81.79
64230;BME280;50547;49.498;0.092;2023-02-12T05:31:17;1034.33;;;9.98;81.39
64230;BME280;50547;49.498;0.092;2023-02-12T05:33:48;1034.27;;;9.94;81.64
64230;BME280;50547;49.498;0.092;2023-02-12T05:36:19;1034.25;;;9.74;82.55
64230;BME280;50547;49.498;0.092;2023-02-12T05:38:50;1034.15;;;9.75;82.27
64230;BME280;50547;49.498;0.092;2023-02-12T05:41:21;1034.27;;;9.39;83.78
64230;BME280;50547;49.498;0.092;2023-02-12T05:43:51;1034.21;;;9.27;83.82
64230;BME280;50547;49.498;0.092;2023-02-12T05:46:21;1034.23;;;9.29;83.33
64230;BME280;50547;49.498;0.092;2023-02-12T05:48:50;1034.13;;;9.30;83.04
64230;BME280;50547;49.498;0.092;2023-02-12T05:51:21;1034.13;;;9.06;83.84
64230;BME280;50547;49.498;0.092;2023-02-12T05:53:55;1034.19;;;9.12;83.21
64230;BME280;50547;49.498;0.092;2023-02-12T05:56:26;1034.19;;;9.15;82.94
64230;BME280;50547;49.498;0.092;2023-02-12T05:58:57;1034.19;;;9.28;82.29
64230;BME280;50547;49.498;0.092;2023-02-12T06:01:28;1034.21;;;9.27;82.31
64230;BME280;50547;49.498;0.092;2023-02-12T06:03:59;1034.23;;;9.30;82.17
64230;BME280;50547;49.498;0.092;2023-02-12T06:06:29;1034.21;;;9.28;82.21
64230;BME280;50547;49.498;0.092;2023-02-12T06:08:59;1034.17;;;9.37;81.87
64230;BME280;50547;49.498;0.092;2023-02-12T06:11:28;1034.13;;;9.52;81.34
64230;BME280;50547;49.498;0.092;2023-02-12T06:14:01;1034.17;;;9.55;81.37
64230;BME280;50547;49.498;0.092;2023-02-12T06:16:31;1034.11;;;9.55;81.66
64230;BME280;50547;49.498;0.092;2023-02-12T06:19:02;1034.13;;;9.66;81.26
64230;BME280;50547;49.498;0.092;2023-02-12T06:21:32;1034.17;;;9.59;81.65
64230;BME280;50547;49.498;0.092;2023-02-12T06:24:01;1034.17;;;9.53;82.06
64230;BME280;50547;49.498;0.092;2023-02-12T06:26:30;1034.15;;;9.58;81.83
64230;BME280;50547;49.498;0.092;2023-02-12T06:29:00;1034.10;;;9.53;82.01
64230;BME280;50547;49.498;0.092;2023-02-12T06:31:31;1034.17;;;9.38;82.65
64230;BME280;50547;49.498;0.092;2023-02-12T06:34:03;1034.13;;;9.45;82.27
64230;BME280;50547;49.498;0.092;2023-02-12T06:36:35;1034.08;;;9.46;82.16
64230;BME280;50547;49.498;0.092;2023-02-12T06:39:04;1034.13;;;9.41;82.39
64230;BME280;50547;49.498;0.092;2023-02-12T06:41:34;1034.21;;;9.31;82.82
64230;BME280;50547;49.498;0.092;2023-02-12T06:44:03;1034.10;;;9.27;82.97
64230;BME280;50547;49.498;0.092;2023-02-12T06:46:32;1034.17;;;9.15;83.54
64230;BME280;50547;49.498;0.092;2023-02-12T06:49:02;1034.13;;;9.25;83.06
64230;BME280;50547;49.498;0.092;2023-02-12T06:51:31;1034.21;;;9.35;82.56
64230;BME280;50547;49.498;0.092;2023-02-12T06:54:00;1034.19;;;9.21;83.18
64230;BME280;50547;49.498;0.092;2023-02-12T06:56:29;1034.19;;;9.17;83.16
64230;BME280;50547;49.498;0.092;2023-02-12T06:58:58;1034.19;;;9.04;83.74
64230;BME280;50547;49.498;0.092;2023-02-12T07:01:28;1034.15;;;9.08;83.37
64230;BME280;50547;49.498;0.092;2023-02-12T07:03:59;1034.19;;;8.83;84.31
64230;BME280;50547;49.498;0.092;2023-02-12T07:06:30;1034.21;;;8.70;84.99
64230;BME280;50547;49.498;0.092;2023-02-12T07:09:00;1034.13;;;8.80;84.05
64230;BME280;50547;49.498;0.092;2023-02-12T07:11:31;1034.21;;;8.76;84.16
64230;BME280;50547;49.498;0.092;2023-02-12T07:14:01;1034.17;;;8.68;84.45
64230;BME280;50547;49.498;0.092;2023-02-12T07:16:30;1034.17;;;8.66;84.54
64230;BME280;50547;49.498;0.092;2023-02-12T07:18:59;1034.21;;;8.67;84.37
64230;BME280;50547;49.498;0.092;2023-02-12T07:21:28;1034.25;;;8.62;84.51
64230;BME280;50547;49.498;0.092;2023-02-12T07:23:57;1034.27;;;8.67;84.28
64230;BME280;50547;49.498;0.092;2023-02-12T07:26:26;1034.27;;;8.62;84.19
64230;BME280;50547;49.498;0.092;2023-02-12T07:28:56;1034.31;;;8.49;84.52
64230;BME280;50547;49.498;0.092;2023-02-12T07:31:25;1034.29;;;8.48;84.57
64230;BME280;50547;49.498;0.092;2023-02-12T07:33:55;1034.25;;;8.56;84.06
64230;BME280;50547;49.498;0.092;2023-02-12T07:36:27;1034.25;;;8.51;84.10
64230;BME280;50547;49.498;0.092;2023-02-12T07:38:56;1034.27;;;8.44;84.26
64230;BME280;50547;49.498;0.092;2023-02-12T07:41:27;1034.25;;;8.51;83.84
64230;BME280;50547;49.498;0.092;2023-02-12T07:43:59;1034.25;;;8.38;84.47
64230;BME280;50547;49.498;0.092;2023-02-12T07:46:30;1034.25;;;8.51;84.13
64230;BME280;50547;49.498;0.092;2023-02-12T07:49:01;1034.25;;;8.72;83.18
64230;BME280;50547;49.498;0.092;2023-02-12T07:51:32;1034.31;;;8.66;83.48
64230;BME280;50547;49.498;0.092;2023-02-12T07:54:02;1034.37;;;8.67;83.42
64230;BME280;50547;49.498;0.092;2023-02-12T07:56:33;1034.27;;;8.68;83.40
64230;BME280;50547;49.498;0.092;2023-02-12T07:59:06;1034.37;;;8.77;83.16
64230;BME280;50547;49.498;0.092;2023-02-12T08:01:37;1034.39;;;8.73;83.32
64230;BME280;50547;49.498;0.092;2023-02-12T08:04:08;1034.39;;;8.67;83.61
64230;BME280;50547;49.498;0.092;2023-02-12T08:06:40;1034.35;;;8.68;83.61
64230;BME280;50547;49.498;0.092;2023-02-12T08:09:11;1034.33;;;8.72;83.45
64230;BME280;50547;49.498;0.092;2023-02-12T08:11:41;1034.37;;;8.86;83.01
64230;BME280;50547;49.498;0.092;2023-02-12T08:14:12;1034.39;;;8.97;82.52
64230;BME280;50547;49.498;0.092;2023-02-12T08:16:42;1034.33;;;8.81;83.29
64230;BME280;50547;49.498;0.092;2023-02-12T08:19:12;1034.35;;;8.84;83.08
64230;BME280;50547;49.498;0.092;2023-02-12T08:21:41;1034.37;;;8.86;82.99
64230;BME280;50547;49.498;0.092;2023-02-12T08:24:10;1034.43;;;8.80;83.19
64230;BME280;50547;49.498;0.092;2023-02-12T08:26:39;1034.39;;;8.66;83.80
64230;BME280;50547;49.498;0.092;2023-02-12T08:29:10;1034.45;;;8.75;83.33
64230;BME280;50547;49.498;0.092;2023-02-12T08:31:41;1034.43;;;8.84;82.92
64230;BME280;50547;49.498;0.092;2023-02-12T08:34:16;1034.45;;;8.92;82.64
64230;BME280;50547;49.498;0.092;2023-02-12T08:36:47;1034.43;;;8.90;82.56
64230;BME280;50547;49.498;0.092;2023-02-12T08:39:28;1034.39;;;8.85;82.72
64230;BME280;50547;49.498;0.092;2023-02-12T08:41:58;1034.47;;;8.87;82.55
64230;BME280;50547;49.498;0.092;2023-02-12T08:44:26;1034.53;;;8.86;82.60
64230;BME280;50547;49.498;0.092;2023-02-12T08:46:55;1034.49;;;8.97;82.15
64230;BME280;50547;49.498;0.092;2023-02-12T08:49:26;1034.43;;;8.94;82.07
64230;BME280;50547;49.498;0.092;2023-02-12T08:51:57;1034.41;;;8.90;82.30
64230;BME280;50547;49.498;0.092;2023-02-12T08:54:29;1034.41;;;8.91;82.28
64230;BME280;50547;49.498;0.092;2023-02-12T08:56:59;1034.41;;;9.00;81.98
64230;BME280;50547;49.498;0.092;2023-02-12T08:59:29;1034.39;;;9.05;81.60
64230;BME280;50547;49.498;0.092;2023-02-12T09:01:58;1034.41;;;8.97;82.26
64230;BME280;50547;49.498;0.092;2023-02-12T09:04:27;1034.45;;;8.90;82.44
64230;BME280;50547;49.498;0.092;2023-02-12T09:06:56;1034.35;;;8.86;82.70
64230;BME280;50547;49.498;0.092;2023-02-12T09:09:26;1034.37;;;8.91;82.57
64230;BME280;50547;49.498;0.092;2023-02-12T09:11:55;1034.41;;;8.97;82.25
64230;BME280;50547;49.498;0.092;2023-02-12T09:14:23;1034.33;;;8.88;82.72
64230;BME280;50547;49.498;0.092;2023-02-12T09:16:53;1034.33;;;8.78;82.94
64230;BME280;50547;49.498;0.092;2023-02-12T09:19:20;1034.33;;;8.73;82.98
64230;BME280;50547;49.498;0.092;2023-02-12T09:21:51;1034.37;;;8.85;82.34
64230;BME280;50547;49.498;0.092;2023-02-12T09:24:21;1034.31;;;8.84;82.28
64230;BME280;50547;49.498;0.092;2023-02-12T09:26:50;1034.39;;;8.82;82.74
64230;BME280;50547;49.498;0.092;2023-02-12T09:29:19;1034.33;;;8.87;82.52
64230;BME280;50547;49.498;0.092;2023-02-12T09:31:48;1034.33;;;8.83;82.74
64230;BME280;50547;49.498;0.092;2023-02-12T09:34:17;1034.31;;;8.87;82.47
64230;BME280;50547;49.498;0.092;2023-02-12T09:36:46;1034.31;;;8.83;82.52
64230;BME280;50547;49.498;0.092;2023-02-12T09:39:15;1034.27;;;8.89;82.22
64230;BME280;50547;49.498;0.092;2023-02-12T09:42:15;1034.27;;;9.17;81.21
64230;BME280;50547;49.498;0.092;2023-02-12T09:44:56;1034.31;;;8.99;82.07
64230;BME280;50547;49.498;0.092;2023-02-12T09:47:33;1034.29;;;9.07;81.74
64230;BME280;50547;49.498;0.092;2023-02-12T09:50:16;1034.31;;;8.96;82.23
64230;BME280;50547;49.498;0.092;2023-02-12T09:52:50;1034.27;;;9.10;81.52
64230;BME280;50547;49.498;0.092;2023-02-12T09:55:20;1034.27;;;9.23;81.05
64230;BME280;50547;49.498;0.092;2023-02-12T09:57:53;1034.33;;;9.19;81.17
64230;BME280;50547;49.498;0.092;2023-02-12T10:00:25;1034.29;;;9.26;81.00
64230;BME280;50547;49.498;0.092;2023-02-12T10:02:55;1034.23;;;9.26;80.84
64230;BME280;50547;49.498;0.092;2023-02-12T10:05:28;1034.25;;;9.20;81.19
64230;BME280;50547;49.498;0.092;2023-02-12T10:08:20;1034.27;;;9.39;80.39
64230;BME280;50547;49.498;0.092;2023-02-12T10:10:52;1034.29;;;9.37;80.63
64230;BME280;50547;49.498;0.092;2023-02-12T10:13:34;1034.19;;;9.27;80.86
64230;BME280;50547;49.498;0.092;2023-02-12T10:16:11;1034.31;;;9.43;80.33
64230;BME280;50547;49.498;0.092;2023-02-12T10:18:53;1034.27;;;9.67;79.50
64230;BME280;50547;49.498;0.092;2023-02-12T10:21:37;1034.25;;;9.46;80.04
64230;BME280;50547;49.498;0.092;2023-02-12T10:24:23;1034.43;;;9.43;80.12
64230;BME280;50547;49.498;0.092;2023-02-12T10:26:57;1034.39;;;9.43;79.96
64230;BME280;50547;49.498;0.092;2023-02-12T10:29:32;1034.43;;;9.38;80.18
64230;BME280;50547;49.498;0.092;2023-02-12T10:32:10;1034.49;;;9.56;79.50
64230;BME280;50547;49.498;0.092;2023-02-12T10:34:41;1034.45;;;9.76;78.73
64230;BME280;50547;49.498;0.092;2023-02-12T10:37:20;1034.51;;;9.77;78.64
64230;BME280;50547;49.498;0.092;2023-02-12T10:39:56;1034.51;;;9.67;79.25
64230;BME280;50547;49.498;0.092;2023-02-12T10:42:37;1034.41;;;9.62;79.22
64230;BME280;50547;49.498;0.092;2023-02-12T10:45:11;1034.45;;;9.49;79.97
64230;BME280;50547;49.498;0.092;2023-02-12T10:48:14;1034.45;;;9.54;79.64
64230;BME280;50547;49.498;0.092;2023-02-12T10:50:51;1034.11;;;9.67;78.83
64230;BME280;50547;49.498;0.092;2023-02-12T10:53:25;1034.41;;;9.60;79.19
64230;BME280;50547;49.498;0.092;2023-02-12T10:56:12;1034.45;;;9.65;79.02
64230;BME280;50547;49.498;0.092;2023-02-12T10:58:52;1034.43;;;9.80;78.41
64230;BME280;50547;49.498;0.092;2023-02-12T11:01:26;1034.43;;;9.82;78.10
64230;BME280;50547;49.498;0.092;2023-02-12T11:03:58;1034.41;;;9.92;78.01
64230;BME280;50547;49.498;0.092;2023-02-12T11:06:29;1034.39;;;9.95;77.89
64230;BME280;50547;49.498;0.092;2023-02-12T11:08:59;1034.35;;;10.06;77.50
64230;BME280;50547;49.498;0.092;2023-02-12T11:11:29;1034.33;;;10.03;77.89
64230;BME280;50547;49.498;0.092;2023-02-12T11:14:02;1034.23;;;9.98;77.93
64230;BME280;50547;49.498;0.092;2023-02-12T11:16:35;1034.23;;;9.91;78.31
64230;BME280;50547;49.498;0.092;2023-02-12T11:19:07;1034.25;;;9.88;78.35
64230;BME280;50547;49.498;0.092;2023-02-12T11:21:46;1034.11;;;9.76;78.82
64230;BME280;50547;49.498;0.092;2023-02-12T11:24:32;1034.15;;;9.73;79.00
64230;BME280;50547;49.498;0.092;2023-02-12T11:27:34;1034.15;;;9.73;78.69
64230;BME280;50547;49.498;0.092;2023-02-12T11:30:12;1034.21;;;9.85;78.09
64230;BME280;50547;49.498;0.092;2023-02-12T11:32:42;1034.17;;;9.84;78.03
64230;BME280;50547;49.498;0.092;2023-02-12T11:35:13;1034.19;;;9.82;78.19
64230;BME280;50547;49.498;0.092;2023-02-12T11:37:45;1034.19;;;9.94;77.71
64230;BME280;50547;49.498;0.092;2023-02-12T11:40:18;1034.17;;;9.95;77.56
64230;BME280;50547;49.498;0.092;2023-02-12T11:42:50;1034.17;;;10.03;77.45
64230;BME280;50547;49.498;0.092;2023-02-12T11:45:21;1034.15;;;10.06;77.36
64230;BME280;50547;49.498;0.092;2023-02-12T11:47:53;1034.11;;;10.09;77.37
64230;BME280;50547;49.498;0.092;2023-02-12T11:50:25;1034.10;;;10.16;77.11
64230;BME280;50547;49.498;0.092;2023-02-12T11:52:58;1034.06;;;10.10;77.30
64230;BME280;50547;49.498;0.092;2023-02-12T11:55:30;1034.08;;;10.09;77.33
64230;BME280;50547;49.498;0.092;2023-02-12T11:58:02;1033.98;;;10.07;77.56
64230;BME280;50547;49.498;0.092;2023-02-12T12:00:37;1034.00;;;10.13;77.36
64230;BME280;50547;49.498;0.092;2023-02-12T12:03:12;1033.98;;;10.16;77.23
64230;BME280;50547;49.498;0.092;2023-02-12T12:05:44;1034.00;;;10.21;77.08
64230;BME280;50547;49.498;0.092;2023-02-12T12:08:20;1033.96;;;10.26;76.82
64230;BME280;50547;49.498;0.092;2023-02-12T12:10:57;1033.94;;;10.25;77.01
64230;BME280;50547;49.498;0.092;2023-02-12T12:13:31;1033.92;;;10.33;76.72
64230;BME280;50547;49.498;0.092;2023-02-12T12:16:06;1033.86;;;10.35;76.72
64230;BME280;50547;49.498;0.092;2023-02-12T12:18:44;1033.86;;;10.45;76.19
64230;BME280;50547;49.498;0.092;2023-02-12T12:21:19;1033.88;;;10.40;76.43
64230;BME280;50547;49.498;0.092;2023-02-12T12:23:56;1033.82;;;10.48;76.40
64230;BME280;50547;49.498;0.092;2023-02-12T12:26:27;1033.69;;;10.40;76.63
64230;BME280;50547;49.498;0.092;2023-02-12T12:29:02;1033.69;;;10.47;76.40
64230;BME280;50547;49.498;0.092;2023-02-12T12:31:34;1033.63;;;10.58;75.92
64230;BME280;50547;49.498;0.092;2023-02-12T12:34:08;1033.59;;;10.54;76.07
64230;BME280;50547;49.498;0.092;2023-02-12T12:36:55;1033.59;;;10.56;76.05
64230;BME280;50547;49.498;0.092;2023-02-12T12:39:34;1033.57;;;10.58;76.02
64230;BME280;50547;49.498;0.092;2023-02-12T12:42:21;1033.52;;;10.71;75.43
64230;BME280;50547;49.498;0.092;2023-02-12T12:45:05;1033.48;;;10.65;75.90
64230;BME280;50547;49.498;0.092;2023-02-12T12:47:51;1033.52;;;10.68;75.88
64230;BME280;50547;49.498;0.092;2023-02-12T12:50:34;1033.46;;;10.74;75.61
64230;BME280;50547;49.498;0.092;2023-02-12T12:53:23;1033.44;;;10.58;76.19
64230;BME280;50547;49.498;0.092;2023-02-12T12:56:09;1033.46;;;10.47;76.52
64230;BME280;50547;49.498;0.092;2023-02-12T12:58:56;1033.46;;;10.46;76.56
64230;BME280;50547;49.498;0.092;2023-02-12T13:01:46;1033.46;;;10.41;76.69
64230;BME280;50547;49.498;0.092;2023-02-12T13:09:14;1033.22;;;10.60;75.84
64230;BME280;50547;49.498;0.092;2023-02-12T13:12:07;1033.26;;;10.53;76.24
64230;BME280;50547;49.498;0.092;2023-02-12T13:14:45;1033.20;;;10.60;75.88
64230;BME280;50547;49.498;0.092;2023-02-12T13:17:20;1033.18;;;10.57;75.89
64230;BME280;50547;49.498;0.092;2023-02-12T13:19:58;1033.18;;;10.71;75.51
64230;BME280;50547;49.498;0.092;2023-02-12T13:22:35;1033.16;;;10.90;74.91
64230;BME280;50547;49.498;0.092;2023-02-12T13:25:18;1033.12;;;10.85;74.83
64230;BME280;50547;49.498;0.092;2023-02-12T13:27:50;1033.05;;;10.88;74.95
64230;BME280;50547;49.498;0.092;2023-02-12T13:30:22;1033.05;;;10.87;74.88
64230;BME280;50547;49.498;0.092;2023-02-12T13:33:02;1032.99;;;10.89;74.81
64230;BME280;50547;49.498;0.092;2023-02-12T13:35:36;1032.93;;;10.77;75.26
64230;BME280;50547;49.498;0.092;2023-02-12T13:38:07;1032.99;;;10.76;75.32
64230;BME280;50547;49.498;0.092;2023-02-12T13:40:38;1033.01;;;10.71;75.55
64230;BME280;50547;49.498;0.092;2023-02-12T13:43:18;1032.97;;;10.73;75.17
64230;BME280;50547;49.498;0.092;2023-02-12T13:45:58;1033.07;;;10.63;75.78
64230;BME280;50547;49.498;0.092;2023-02-12T13:48:40;1033.05;;;10.63;75.66
64230;BME280;50547;49.498;0.092;2023-02-12T13:51:20;1033.03;;;10.68;75.40
64230;BME280;50547;49.498;0.092;2023-02-12T13:54:00;1032.93;;;10.71;75.07
64230;BME280;50547;49.498;0.092;2023-02-12T13:56:39;1032.97;;;10.74;75.24